createdAt,value
2019-05-19T00:00:20.666Z,99.90
2019-05-19T00:07:59.119Z,99.90
2019-05-19T00:10:31.013Z,99.90
2019-05-19T00:13:02.880Z,99.90
2019-05-19T00:18:10.050Z,99.90
2019-05-19T00:25:48.450Z,99.90
2019-05-19T00:28:21.275Z,99.90
2019-05-19T00:33:25.665Z,99.90
2019-05-19T00:35:57.718Z,99.90
2019-05-19T00:38:29.271Z,99.90
2019-05-19T00:41:02.274Z,99.90
2019-05-19T00:43:35.164Z,99.90
2019-05-19T00:51:10.105Z,99.90
2019-05-19T00:56:15.377Z,99.90
2019-05-19T00:58:47.638Z,99.90
2019-05-19T01:01:20.410Z,99.90
2019-05-19T01:03:55.084Z,99.90
2019-05-19T01:09:01.954Z,99.90
2019-05-19T01:14:08.304Z,99.90
2019-05-19T01:29:22.631Z,99.90
2019-05-19T01:31:55.404Z,99.90
2019-05-19T01:37:00.535Z,99.90
2019-05-19T01:39:32.497Z,99.90
2019-05-19T01:42:05.215Z,99.90
2019-05-19T01:44:37.916Z,99.90
2019-05-19T01:47:11.954Z,99.90
2019-05-19T01:54:48.487Z,99.90
2019-05-19T01:57:21.325Z,99.90
2019-05-19T01:59:54.143Z,99.90
2019-05-19T02:02:27.050Z,99.90
2019-05-19T02:07:31.399Z,99.90
2019-05-19T02:12:36.617Z,99.90
2019-05-19T02:22:45.970Z,99.90
2019-05-19T02:25:20.179Z,99.90
2019-05-19T02:27:52.953Z,99.90
2019-05-19T02:30:28.526Z,99.90
2019-05-19T02:35:32.703Z,99.90
2019-05-19T02:38:04.589Z,99.90
2019-05-19T02:50:52.785Z,99.90
2019-05-19T02:53:24.158Z,99.90
2019-05-19T02:58:33.102Z,99.90
2019-05-19T03:01:05.916Z,99.90
2019-05-19T03:03:37.895Z,99.90
2019-05-19T03:06:12.395Z,99.90
2019-05-19T03:11:17.832Z,99.90
2019-05-19T03:21:27.655Z,99.90
2019-05-19T03:23:59.605Z,99.90
2019-05-19T03:26:34.123Z,99.90
2019-05-19T03:29:07.400Z,99.90
2019-05-19T03:34:16.712Z,99.90
2019-05-19T03:36:49.479Z,99.90
2019-05-19T03:41:58.158Z,99.90
2019-05-19T03:47:02.295Z,99.90
2019-05-19T03:52:06.776Z,99.90
2019-05-19T03:54:40.010Z,99.90
2019-05-19T04:02:16.756Z,99.90
2019-05-19T04:04:48.607Z,99.90
2019-05-19T04:07:21.549Z,99.90
2019-05-19T04:09:53.383Z,99.90
2019-05-19T04:12:26.178Z,99.90
2019-05-19T04:14:58.981Z,99.90
2019-05-19T04:17:31.721Z,99.90
2019-05-19T04:25:07.422Z,99.90
2019-05-19T04:30:12.934Z,99.90
2019-05-19T04:32:44.814Z,99.90
2019-05-19T04:35:16.682Z,99.90
2019-05-19T04:40:21.843Z,99.90
2019-05-19T04:42:54.692Z,99.90
2019-05-19T04:45:28.840Z,99.90
2019-05-19T04:50:35.627Z,99.90
2019-05-19T04:55:39.217Z,99.90
2019-05-19T04:58:11.967Z,99.90
2019-05-19T05:03:16.386Z,99.90
2019-05-19T05:08:29.511Z,99.90
2019-05-19T05:13:27.556Z,99.90
2019-05-19T05:21:05.642Z,99.90
2019-05-19T05:23:38.367Z,99.90
2019-05-19T05:31:15.606Z,99.90
2019-05-19T05:33:47.696Z,99.90
2019-05-19T05:38:53.755Z,99.90
2019-05-19T05:41:26.669Z,99.90
2019-05-19T05:43:58.437Z,99.90
2019-05-19T05:51:38.189Z,99.90
2019-05-19T05:54:10.268Z,99.90
2019-05-19T05:56:44.783Z,99.90
2019-05-19T05:59:16.731Z,99.90
2019-05-19T06:06:55.899Z,99.90
2019-05-19T06:09:28.662Z,99.90
2019-05-19T06:19:37.825Z,99.90
2019-05-19T06:24:42.944Z,99.90
2019-05-19T06:29:50.614Z,99.90
2019-05-19T06:32:27.314Z,99.90
2019-05-19T06:35:00.034Z,99.90
2019-05-19T06:37:31.889Z,99.90
2019-05-19T06:40:04.467Z,99.90
2019-05-19T06:47:43.932Z,99.90
2019-05-19T06:50:17.470Z,99.90
2019-05-19T06:52:49.280Z,99.90
2019-05-19T06:57:53.517Z,99.90
2019-05-19T07:00:25.469Z,99.90
2019-05-19T07:05:29.438Z,99.90
2019-05-19T07:13:08.936Z,99.90
2019-05-19T07:20:45.409Z,99.90
2019-05-19T07:28:24.711Z,99.90
2019-05-19T07:33:29.908Z,99.90
2019-05-19T07:36:04.492Z,99.90
2019-05-19T07:48:47.337Z,99.90
2019-05-19T07:51:21.450Z,99.90
2019-05-19T07:53:56.852Z,99.90
2019-05-19T07:56:29.668Z,99.90
2019-05-19T07:59:02.485Z,99.90
2019-05-19T08:01:36.642Z,99.90
2019-05-19T08:04:09.447Z,99.90
2019-05-19T08:06:43.018Z,99.90
2019-05-19T08:11:47.224Z,99.90
2019-05-19T08:27:01.495Z,99.90
2019-05-19T08:32:05.745Z,99.90
2019-05-19T08:37:08.547Z,99.90
2019-05-19T08:39:41.247Z,99.90
2019-05-19T08:47:18.102Z,99.90
2019-05-19T08:52:22.127Z,99.90
2019-05-19T08:54:56.290Z,99.90
2019-05-19T09:02:31.986Z,99.90
2019-05-19T09:05:04.945Z,99.90
2019-05-19T09:10:10.520Z,99.90
2019-05-19T09:15:14.198Z,99.90
2019-05-19T09:17:48.879Z,99.90
2019-05-19T09:22:52.083Z,99.90
2019-05-19T09:27:57.054Z,99.90
2019-05-19T09:33:03.159Z,99.90
2019-05-19T09:40:41.326Z,99.90
2019-05-19T09:43:15.437Z,99.90
2019-05-19T09:45:47.303Z,99.90
2019-05-19T09:48:20.116Z,99.90
2019-05-19T09:55:58.141Z,99.90
2019-05-19T09:58:30.842Z,99.90
2019-05-19T10:01:03.650Z,99.90
2019-05-19T10:08:40.444Z,99.90
2019-05-19T10:13:49.988Z,99.90
2019-05-19T10:21:26.213Z,99.90
2019-05-19T10:26:31.131Z,99.90
2019-05-19T10:36:38.174Z,99.90
2019-05-19T10:41:42.455Z,99.90
2019-05-19T10:46:49.493Z,99.90
2019-05-19T10:51:54.516Z,99.90
2019-05-19T10:54:26.307Z,99.90
2019-05-19T10:56:59.162Z,99.90
2019-05-19T10:59:31.846Z,99.90
2019-05-19T11:12:14.351Z,99.90
2019-05-19T11:14:47.175Z,99.90
2019-05-19T11:19:53.927Z,99.90
2019-05-19T11:24:58.079Z,99.90
2019-05-19T11:30:03.715Z,97.70
2019-05-19T11:35:10.591Z,96.40
2019-05-19T11:40:15.742Z,94.80
2019-05-19T11:42:47.754Z,95.90
2019-05-19T11:50:25.620Z,98.40
2019-05-19T11:52:58.674Z,93.10
2019-05-19T11:58:03.762Z,98.40
2019-05-19T12:03:07.432Z,93.10
2019-05-19T12:05:39.298Z,93.10
2019-05-19T12:08:13.292Z,90.50
2019-05-19T12:10:46.026Z,91.00
2019-05-19T12:13:18.816Z,93.10
2019-05-19T12:20:56.193Z,90.20
2019-05-19T12:25:59.540Z,85.30
2019-05-19T12:31:07.343Z,86.40
2019-05-19T12:36:16.327Z,79.10
2019-05-19T12:38:50.886Z,77.30
2019-05-19T12:41:22.838Z,75.70
2019-05-19T12:46:27.086Z,81.40
2019-05-19T12:51:30.419Z,77.50
2019-05-19T12:54:02.287Z,75.60
2019-05-19T12:56:39.459Z,72.90
2019-05-19T12:59:08.653Z,74.30
2019-05-19T13:01:41.482Z,76.50
2019-05-19T13:04:12.888Z,72.20
2019-05-19T13:06:47.491Z,73.50
2019-05-19T13:09:19.465Z,73.50
2019-05-19T13:11:53.075Z,72.90
2019-05-19T13:16:58.419Z,72.70
2019-05-19T13:19:31.213Z,72.80
2019-05-19T13:22:05.910Z,70.10
2019-05-19T13:27:10.971Z,69.40
2019-05-19T13:32:17.838Z,68.80
2019-05-19T13:34:52.320Z,68.90
2019-05-19T13:37:24.193Z,68.20
2019-05-19T13:42:30.588Z,68.70
2019-05-19T13:50:09.635Z,71.90
2019-05-19T13:52:41.596Z,72.80
2019-05-19T13:55:17.642Z,68.30
2019-05-19T13:57:49.445Z,66.30
2019-05-19T14:02:54.710Z,65.70
2019-05-19T14:07:59.902Z,63.10
2019-05-19T14:10:32.885Z,62.20
2019-05-19T14:13:07.088Z,66.10
2019-05-19T14:18:10.434Z,61.60
2019-05-19T14:23:14.773Z,64.20
2019-05-19T14:25:48.202Z,69.00
2019-05-19T14:30:55.594Z,74.50
2019-05-19T14:33:28.399Z,78.10
2019-05-19T14:36:02.985Z,77.90
2019-05-19T14:38:34.941Z,78.00
2019-05-19T14:46:12.395Z,84.90
2019-05-19T14:48:44.262Z,87.20
2019-05-19T14:56:21.027Z,85.60
2019-05-19T14:58:52.926Z,86.50
2019-05-19T15:03:59.156Z,90.70
2019-05-19T15:09:05.721Z,81.90
2019-05-19T15:11:37.715Z,78.00
2019-05-19T15:16:42.803Z,76.60
2019-05-19T15:24:19.552Z,77.70
2019-05-19T15:29:24.742Z,73.10
2019-05-19T15:31:57.113Z,75.20
2019-05-19T15:34:29.890Z,77.30
2019-05-19T15:37:02.629Z,78.00
2019-05-19T15:39:34.594Z,76.20
2019-05-19T15:47:10.403Z,77.20
2019-05-19T15:49:42.284Z,78.80
2019-05-19T15:52:13.703Z,80.80
2019-05-19T16:02:22.563Z,84.50
2019-05-19T16:04:54.374Z,81.10
2019-05-19T16:12:31.079Z,83.70
2019-05-19T16:15:02.950Z,84.30
2019-05-19T16:17:35.670Z,84.40
2019-05-19T16:22:39.178Z,84.70
2019-05-19T16:27:44.589Z,78.90
2019-05-19T16:32:49.667Z,81.30
2019-05-19T16:37:53.838Z,82.40
2019-05-19T16:40:25.698Z,77.20
2019-05-19T16:43:02.217Z,76.80
2019-05-19T16:55:42.338Z,91.30
2019-05-19T16:58:21.089Z,99.20
2019-05-19T17:00:47.743Z,95.30
2019-05-19T17:03:22.344Z,94.10
2019-05-19T17:05:56.825Z,99.90
2019-05-19T17:08:29.634Z,98.80
2019-05-19T17:16:06.210Z,99.80
2019-05-19T17:18:40.306Z,99.90
2019-05-19T17:21:13.030Z,99.90
2019-05-19T17:23:45.831Z,99.90
2019-05-19T17:26:17.702Z,99.90
2019-05-19T17:29:00.261Z,99.90
2019-05-19T17:31:24.910Z,99.90
2019-05-19T17:39:01.352Z,99.90
2019-05-19T17:41:33.697Z,99.90
2019-05-19T17:46:37.771Z,99.90
2019-05-19T17:56:50.971Z,99.90
2019-05-19T17:59:24.651Z,99.90
2019-05-19T18:04:29.547Z,99.90
2019-05-19T18:12:08.686Z,99.90
2019-05-19T18:14:43.173Z,99.90
2019-05-19T18:22:21.663Z,99.90
2019-05-19T18:32:32.930Z,99.90
2019-05-19T18:35:07.483Z,99.90
2019-05-19T18:37:40.607Z,99.90
2019-05-19T18:40:13.437Z,99.90
2019-05-19T18:42:45.390Z,99.90
2019-05-19T18:45:17.371Z,99.90
2019-05-19T18:55:24.954Z,99.90
2019-05-19T19:03:07.899Z,99.90
2019-05-19T19:08:12.347Z,99.90
2019-05-19T19:13:15.647Z,99.90
2019-05-19T19:18:19.815Z,99.90
2019-05-19T19:23:24.528Z,99.90
2019-05-19T19:31:02.863Z,99.90
2019-05-19T19:33:36.651Z,99.90
2019-05-19T19:36:08.747Z,99.90
2019-05-19T19:43:45.529Z,99.90
2019-05-19T19:46:18.397Z,99.90
2019-05-19T19:48:50.250Z,99.90
2019-05-19T19:53:55.443Z,99.90
2019-05-19T19:59:02.357Z,99.90
2019-05-19T20:04:05.746Z,99.90
2019-05-19T20:06:38.491Z,99.90
2019-05-19T20:14:17.227Z,99.90
2019-05-19T20:19:24.376Z,99.90
2019-05-19T20:27:01.459Z,99.90
2019-05-19T20:32:09.707Z,99.90
2019-05-19T20:34:42.603Z,99.90
2019-05-19T20:37:15.285Z,99.90
2019-05-19T20:42:19.738Z,99.90
2019-05-19T20:49:56.195Z,99.90
2019-05-19T20:55:00.359Z,99.90
2019-05-19T21:00:08.610Z,99.90
2019-05-19T21:05:11.081Z,99.90
2019-05-19T21:10:14.402Z,99.90
2019-05-19T21:28:01.558Z,99.90
2019-05-19T21:33:05.696Z,99.90
2019-05-19T21:38:08.215Z,99.90
2019-05-19T21:43:10.998Z,99.90
2019-05-19T21:50:44.324Z,99.90
2019-05-19T21:55:50.212Z,99.90
2019-05-19T22:03:27.605Z,99.90
2019-05-19T22:05:59.434Z,99.90
2019-05-19T22:11:04.773Z,99.90
2019-05-19T22:13:37.639Z,99.90
2019-05-19T22:16:13.332Z,99.90
2019-05-19T22:31:36.229Z,99.90
2019-05-19T22:51:41.730Z,99.90
2019-05-19T22:54:14.358Z,99.90
2019-05-19T22:59:20.358Z,99.90
2019-05-19T23:04:26.378Z,99.90
2019-05-19T23:09:30.515Z,99.90
2019-05-19T23:14:35.525Z,99.90
2019-05-19T23:19:39.895Z,99.90
2019-05-19T23:27:18.357Z,99.90
2019-05-19T23:29:50.255Z,99.90
2019-05-19T23:34:54.480Z,99.90
2019-05-19T23:37:26.323Z,99.90
2019-05-19T23:42:30.595Z,99.90
2019-05-19T23:47:37.035Z,99.90
2019-05-19T23:50:09.978Z,99.90
2019-05-19T23:52:41.368Z,99.90
2019-05-19T23:55:17.046Z,99.90
2019-05-19T23:57:51.102Z,99.90
